Time;durP1;ratioP1;P1;durP2;ratioP2;P2;SDS_P1;SDS_P2;PMS_P1;PMS_P2;Temp;Humidity;BMP_temperature;BMP_pressure;BME280_temperature;BME280_humidity;BME280_pressure;Samples;Min_cycle;Max_cycle;Signal;HPM_P1;HPM_P2
2023/02/12 00:01:00;;;;;;;1.92;1.73;;;9.00;99.90;;;;;;4953988;28;20059;-80
2023/02/12 00:03:27;;;;;;;2.72;2.30;;;9.00;99.90;;;;;;4939414;28;20542;-79
2023/02/12 00:05:54;;;;;;;3.60;1.90;;;9.00;99.90;;;;;;4970559;28;20527;-79
2023/02/12 00:08:22;;;;;;;2.55;1.98;;;9.00;99.90;;;;;;4955224;28;20531;-80
2023/02/12 00:10:48;;;;;;;2.60;2.28;;;9.00;99.90;;;;;;4954641;28;20043;-81
2023/02/12 00:13:15;;;;;;;3.45;2.25;;;9.00;99.90;;;;;;4971702;28;20055;-81
2023/02/12 00:15:42;;;;;;;2.40;2.10;;;9.00;99.90;;;;;;4941054;28;20063;-81
2023/02/12 00:18:09;;;;;;;2.08;1.88;;;9.00;99.90;;;;;;4940549;29;20105;-81
2023/02/12 00:20:36;;;;;;;3.20;2.60;;;9.00;99.90;;;;;;4941125;29;20200;-81
2023/02/12 00:23:04;;;;;;;2.95;2.53;;;9.00;99.90;;;;;;4972426;28;20500;-81
2023/02/12 00:25:31;;;;;;;3.15;2.53;;;9.00;99.90;;;;;;4956050;28;20123;-80
2023/02/12 00:27:57;;;;;;;2.40;2.15;;;9.00;99.90;;;;;;4955766;28;20047;-81
2023/02/12 00:30:24;;;;;;;2.80;2.42;;;9.00;99.90;;;;;;4956455;28;20055;-81
2023/02/12 00:32:51;;;;;;;3.60;2.85;;;9.00;99.90;;;;;;4972828;28;20100;-81
2023/02/12 00:35:18;;;;;;;2.58;2.05;;;9.00;99.90;;;;;;4939284;28;20054;-81
2023/02/12 00:37:45;;;;;;;3.20;2.67;;;9.00;99.90;;;;;;4969076;28;20110;-80
2023/02/12 00:40:12;;;;;;;2.55;2.20;;;9.00;99.90;;;;;;4955420;28;20054;-81
2023/02/12 00:42:38;;;;;;;3.03;2.60;;;9.00;99.90;;;;;;4971730;28;20138;-81
2023/02/12 00:45:05;;;;;;;2.78;2.22;;;9.00;99.90;;;;;;4954917;28;20410;-81
2023/02/12 00:47:32;;;;;;;3.50;2.50;;;9.00;99.90;;;;;;4934953;29;20055;-81
2023/02/12 00:49:59;;;;;;;3.33;2.45;;;9.00;99.90;;;;;;4919309;29;20079;-81
2023/02/12 00:52:26;;;;;;;3.03;2.30;;;9.00;99.90;;;;;;4936533;29;20056;-81
2023/02/12 00:54:53;;;;;;;3.53;2.45;;;9.00;99.90;;;;;;4959368;28;20102;-81
2023/02/12 00:57:19;;;;;;;2.67;2.38;;;9.00;99.90;;;;;;4940026;28;20138;-81
2023/02/12 00:59:46;;;;;;;2.88;2.20;;;9.00;99.90;;;;;;4971402;28;20051;-81
2023/02/12 01:02:13;;;;;;;2.88;2.22;;;9.00;99.90;;;;;;4972350;28;20086;-81
2023/02/12 01:04:40;;;;;;;2.70;2.40;;;9.00;99.90;;;;;;4972367;28;20078;-81
2023/02/12 01:07:07;;;;;;;3.08;2.50;;;9.00;99.90;;;;;;4971074;28;20162;-80
2023/02/12 01:09:34;;;;;;;2.40;2.10;;;9.00;99.90;;;;;;4953985;28;20423;-81
2023/02/12 01:12:01;;;;;;;2.80;2.15;;;9.00;99.90;;;;;;4955235;28;20071;-81
2023/02/12 01:14:28;;;;;;;2.80;2.35;;;8.90;99.90;;;;;;4957051;28;20078;-81
2023/02/12 01:16:54;;;;;;;3.33;2.42;;;8.90;99.90;;;;;;4942959;29;20166;-81
2023/02/12 01:19:21;;;;;;;2.47;2.08;;;8.90;99.90;;;;;;4974958;28;20043;-81
2023/02/12 01:21:48;;;;;;;2.78;2.13;;;8.90;99.90;;;;;;4974607;28;20055;-81
2023/02/12 01:24:15;;;;;;;3.53;2.80;;;8.90;99.90;;;;;;4942691;29;20050;-80
2023/02/12 01:26:42;;;;;;;3.55;2.90;;;9.00;99.90;;;;;;4944959;29;20719;-81
2023/02/12 01:29:09;;;;;;;3.20;2.60;;;9.00;99.90;;;;;;4971664;28;20051;-80
2023/02/12 01:31:37;;;;;;;3.10;2.72;;;8.90;99.90;;;;;;4957003;28;20082;-80
2023/02/12 01:34:04;;;;;;;3.05;2.70;;;8.90;99.90;;;;;;4957443;28;20728;-81
2023/02/12 01:36:31;;;;;;;3.25;2.72;;;8.90;99.90;;;;;;4942376;28;20091;-81
2023/02/12 01:38:58;;;;;;;3.28;2.97;;;8.90;99.90;;;;;;4959080;28;20345;-80
2023/02/12 01:41:34;;;;;;;3.10;2.80;;;8.90;99.90;;;;;;4958277;28;20142;-81
2023/02/12 01:44:09;;;;;;;3.45;2.92;;;8.90;99.90;;;;;;4958024;28;20428;-81
2023/02/12 01:46:36;;;;;;;3.63;2.80;;;8.90;99.90;;;;;;4942835;28;20284;-81
2023/02/12 01:49:04;;;;;;;3.28;2.45;;;8.90;99.90;;;;;;4959772;28;20054;-81
2023/02/12 01:51:31;;;;;;;2.83;2.42;;;8.90;99.90;;;;;;4959525;28;20094;-81
2023/02/12 01:53:59;;;;;;;3.03;2.33;;;8.90;99.90;;;;;;4943098;29;20573;-81
2023/02/12 01:56:26;;;;;;;3.17;2.70;;;8.90;99.90;;;;;;4956047;28;20528;-81
2023/02/12 01:58:54;;;;;;;3.17;2.88;;;8.90;99.90;;;;;;4941227;29;20109;-81
2023/02/12 02:01:24;;;;;;;3.22;2.38;;;8.80;99.90;;;;;;4956869;28;20067;-81
2023/02/12 02:03:53;;;;;;;2.60;2.35;;;8.80;99.90;;;;;;4958773;28;20051;-81
2023/02/12 02:06:26;;;;;;;2.53;2.22;;;8.90;99.90;;;;;;4958268;28;20062;-81
2023/02/12 02:08:54;;;;;;;2.22;1.85;;;8.90;99.90;;;;;;4942144;29;20134;-82
2023/02/12 02:17:14;;;;;;;3.35;2.22;;;8.90;99.90;;;;;;4956109;28;20131;-81
2023/02/12 02:20:00;;;;;;;2.28;1.80;;;8.90;99.90;;;;;;4942991;28;20083;-81
2023/02/12 02:22:30;;;;;;;1.88;1.50;;;8.90;99.90;;;;;;4944354;29;20047;-81
2023/02/12 02:25:18;;;;;;;2.42;1.77;;;9.00;99.90;;;;;;4942902;28;20051;-81
2023/02/12 02:28:11;;;;;;;2.28;1.77;;;9.00;99.90;;;;;;4943611;29;20051;-80
2023/02/12 02:30:56;;;;;;;2.20;1.62;;;9.00;99.90;;;;;;4837643;28;10000721;-80
2023/02/12 02:33:45;;;;;;;2.30;1.75;;;8.90;99.90;;;;;;4942654;29;20271;-80
2023/02/12 02:36:31;;;;;;;1.67;1.45;;;8.90;99.90;;;;;;4976004;28;20047;-79
2023/02/12 02:39:08;;;;;;;2.90;2.20;;;8.90;99.90;;;;;;4960178;28;20378;-80
2023/02/12 02:41:54;;;;;;;1.55;1.45;;;8.90;99.90;;;;;;4966942;28;20061;-79
2023/02/12 02:44:28;;;;;;;1.80;1.48;;;8.80;99.90;;;;;;4959519;28;20113;-81
2023/02/12 02:46:56;;;;;;;2.38;2.00;;;8.80;99.90;;;;;;4964884;28;20058;-80
2023/02/12 02:49:24;;;;;;;2.50;1.88;;;8.80;99.90;;;;;;4943902;29;20066;-80
2023/02/12 02:51:56;;;;;;;1.95;1.67;;;8.80;99.90;;;;;;4961363;28;20063;-80
2023/02/12 02:54:44;;;;;;;1.80;1.50;;;8.80;99.90;;;;;;4959818;28;20138;-79
2023/02/12 02:57:23;;;;;;;1.77;1.50;;;8.90;99.90;;;;;;4943063;28;20054;-80
2023/02/12 02:59:54;;;;;;;2.30;1.50;;;8.90;99.90;;;;;;4959705;28;20820;-80
2023/02/12 03:02:23;;;;;;;2.58;2.15;;;8.90;99.90;;;;;;4943027;29;20154;-80
2023/02/12 03:04:52;;;;;;;2.58;2.05;;;8.80;99.90;;;;;;4961603;28;20126;-79
2023/02/12 03:07:22;;;;;;;1.95;1.77;;;8.80;99.90;;;;;;4943309;28;20058;-79
2023/02/12 03:09:52;;;;;;;2.30;2.08;;;8.80;99.90;;;;;;4959685;28;20047;-79
2023/02/12 03:12:26;;;;;;;2.33;1.95;;;8.80;99.90;;;;;;4956353;28;20736;-79
2023/02/12 03:14:57;;;;;;;2.53;1.45;;;8.80;99.90;;;;;;4959012;28;20423;-80
2023/02/12 03:17:31;;;;;;;2.28;1.85;;;8.80;99.90;;;;;;4960023;28;20071;-80
2023/02/12 03:20:02;;;;;;;1.98;1.52;;;8.80;99.90;;;;;;4958205;28;20432;-79
2023/02/12 03:22:40;;;;;;;3.35;2.00;;;8.80;99.90;;;;;;4975458;28;20069;-80
2023/02/12 03:25:17;;;;;;;2.20;1.60;;;8.80;99.90;;;;;;4946079;28;20475;-80
2023/02/12 03:28:08;;;;;;;2.35;1.75;;;8.70;99.90;;;;;;4939158;29;20047;-79
2023/02/12 03:30:40;;;;;;;2.05;1.58;;;8.70;99.90;;;;;;4938857;29;20083;-79
2023/02/12 03:33:32;;;;;;;2.17;1.90;;;8.70;99.90;;;;;;4962432;28;20516;-80
2023/02/12 03:36:41;;;;;;;2.55;1.58;;;8.70;99.90;;;;;;4969102;28;20139;-80
2023/02/12 03:39:24;;;;;;;1.90;1.50;;;8.70;99.90;;;;;;4920069;29;20605;-80
2023/02/12 03:42:10;;;;;;;2.53;1.63;;;8.70;99.90;;;;;;4944700;28;20855;-80
2023/02/12 03:44:58;;;;;;;2.00;1.73;;;8.70;99.90;;;;;;4939773;29;20056;-80
2023/02/12 03:47:47;;;;;;;2.05;1.60;;;8.70;99.90;;;;;;4956269;28;20078;-79
2023/02/12 03:50:27;;;;;;;1.80;1.42;;;8.70;99.90;;;;;;4955478;28;20090;-81
2023/02/12 03:52:53;;;;;;;1.92;1.58;;;8.70;99.90;;;;;;4958886;28;20051;-80
2023/02/12 03:55:20;;;;;;;2.10;1.60;;;8.70;99.90;;;;;;4961034;28;20572;-80
2023/02/12 03:57:53;;;;;;;2.08;1.77;;;8.70;99.90;;;;;;4959523;28;20051;-80
2023/02/12 04:00:21;;;;;;;;;;;8.70;99.90;;;;;;4961294;28;20063;-80
2023/02/12 04:02:48;;;;;;;2.05;1.80;;;8.70;99.90;;;;;;4944670;29;19944;-80
2023/02/12 04:05:16;;;;;;;1.80;1.40;;;8.60;99.90;;;;;;4960352;28;20086;-80
2023/02/12 04:07:43;;;;;;;2.40;2.00;;;8.60;99.90;;;;;;4959716;28;20078;-79
2023/02/12 04:10:10;;;;;;;2.28;1.67;;;8.60;99.90;;;;;;4976987;28;20043;-80
2023/02/12 04:12:42;;;;;;;1.67;1.58;;;8.60;99.90;;;;;;4975560;28;20507;-80
2023/02/12 04:15:31;;;;;;;2.22;1.90;;;8.60;99.90;;;;;;4945283;29;20047;-80
2023/02/12 04:18:13;;;;;;;2.13;1.70;;;8.50;99.90;;;;;;4945365;29;20161;-80
2023/02/12 04:20:56;;;;;;;2.13;1.55;;;8.60;99.90;;;;;;4984787;28;20130;-80
2023/02/12 04:23:29;;;;;;;;;;;8.60;99.90;;;;;;4970137;28;20080;-80
2023/02/12 04:25:59;;;;;;;2.17;1.42;;;8.60;99.90;;;;;;4945712;29;19923;-80
2023/02/12 04:28:47;;;;;;;2.95;1.75;;;8.60;99.90;;;;;;4944084;29;20063;-79
2023/02/12 04:31:31;;;;;;;3.22;1.75;;;8.60;99.90;;;;;;4945576;29;20051;-80
2023/02/12 04:34:06;;;;;;;1.83;1.42;;;8.60;99.90;;;;;;4973740;28;20503;-80
2023/02/12 04:36:36;;;;;;;1.88;1.58;;;8.60;99.90;;;;;;4959232;28;20163;-79
2023/02/12 04:39:06;;;;;;;2.15;1.45;;;8.60;99.90;;;;;;4960277;28;20179;-80
2023/02/12 04:41:33;;;;;;;2.00;1.67;;;8.50;99.90;;;;;;4959228;28;20058;-80
2023/02/12 04:44:15;;;;;;;2.08;1.58;;;8.50;99.90;;;;;;4957559;28;20086;-80
2023/02/12 04:46:42;;;;;;;1.95;1.63;;;8.60;99.90;;;;;;4975025;28;20062;-79
2023/02/12 04:49:16;;;;;;;2.40;1.60;;;8.50;99.90;;;;;;4978364;28;20077;-80
2023/02/12 04:51:43;;;;;;;2.22;1.67;;;8.50;99.90;;;;;;4979051;28;20048;-80
2023/02/12 04:54:10;;;;;;;2.10;1.65;;;8.50;99.90;;;;;;4978318;28;20069;-80
2023/02/12 04:56:36;;;;;;;2.50;1.80;;;8.50;99.90;;;;;;4944931;28;20146;-80
2023/02/12 04:59:03;;;;;;;2.45;1.65;;;8.50;99.90;;;;;;4961375;28;20051;-79
2023/02/12 05:01:32;;;;;;;3.20;1.77;;;8.50;99.90;;;;;;4961748;28;20063;-79
2023/02/12 05:03:59;;;;;;;3.33;1.77;;;8.50;99.90;;;;;;4961497;28;20055;-80
2023/02/12 05:06:26;;;;;;;2.80;2.00;;;8.50;99.90;;;;;;4955617;28;20828;-78
2023/02/12 05:08:53;;;;;;;2.10;1.55;;;8.50;99.90;;;;;;4947308;29;20051;-79
2023/02/12 05:11:20;;;;;;;2.20;1.85;;;8.40;99.90;;;;;;4916267;29;20059;-79
2023/02/12 05:13:48;;;;;;;2.20;1.92;;;8.40;99.90;;;;;;4947020;29;20051;-79
2023/02/12 05:16:15;;;;;;;1.65;1.45;;;8.50;99.90;;;;;;4946736;28;20367;-79
2023/02/12 05:18:42;;;;;;;1.88;1.63;;;8.50;99.90;;;;;;4977011;28;20118;-79
2023/02/12 05:21:09;;;;;;;2.58;1.70;;;8.50;99.90;;;;;;4948561;29;20047;-79
2023/02/12 05:23:37;;;;;;;2.55;1.50;;;8.50;99.90;;;;;;4964506;28;20579;-89
2023/02/12 05:26:09;;;;;;;2.15;1.63;;;8.50;99.90;;;;;;4968245;28;20649;-89
2023/02/12 05:28:36;;;;;;;1.43;1.27;;;8.50;99.90;;;;;;4950925;29;20058;-88
2023/02/12 05:31:06;;;;;;;2.20;1.58;;;8.50;99.90;;;;;;4981316;28;20356;-88
2023/02/12 05:33:33;;;;;;;2.53;1.58;;;8.50;99.90;;;;;;4969275;28;20047;-88
2023/02/12 05:36:06;;;;;;;2.42;1.60;;;8.50;99.90;;;;;;4982582;28;20102;-88
2023/02/12 05:38:33;;;;;;;2.38;1.85;;;8.50;99.90;;;;;;4983541;28;20550;-86
2023/02/12 05:41:08;;;;;;;2.10;1.65;;;8.40;99.90;;;;;;4923256;29;20043;-88
2023/02/12 05:43:35;;;;;;;1.70;1.38;;;8.50;99.90;;;;;;4951226;29;20058;-89
2023/02/12 05:46:03;;;;;;;1.90;1.48;;;8.50;99.90;;;;;;4952088;29;20059;-89
2023/02/12 05:48:31;;;;;;;1.65;1.25;;;8.40;99.90;;;;;;4938002;29;20647;-89
2023/02/12 05:51:06;;;;;;;2.47;1.73;;;8.40;99.90;;;;;;4969152;28;20138;-89
2023/02/12 05:53:33;;;;;;;1.70;1.60;;;8.40;99.90;;;;;;4952887;29;20255;-90
2023/02/12 05:56:19;;;;;;;2.78;1.80;;;8.50;99.90;;;;;;4968187;28;20427;-90
2023/02/12 05:58:49;;;;;;;2.88;1.52;;;8.50;99.90;;;;;;4950157;28;20047;-88
2023/02/12 06:01:24;;;;;;;2.08;1.70;;;8.40;99.90;;;;;;4967651;28;20090;-91
2023/02/12 06:03:51;;;;;;;2.63;1.65;;;8.40;99.90;;;;;;4980939;28;20110;-92
2023/02/12 06:06:18;;;;;;;2.10;1.67;;;8.50;99.90;;;;;;4950254;29;20047;-91
2023/02/12 06:08:49;;;;;;;1.98;1.77;;;8.50;99.90;;;;;;4933974;29;20525;-90
2023/02/12 06:11:16;;;;;;;2.28;1.63;;;8.50;99.90;;;;;;4948551;28;20081;-90
2023/02/12 06:13:43;;;;;;;2.65;1.80;;;8.50;99.90;;;;;;4965109;28;20194;-91
2023/02/12 06:16:18;;;;;;;1.95;1.40;;;8.50;99.90;;;;;;4965200;28;20051;-91
2023/02/12 06:18:46;;;;;;;2.53;1.75;;;8.50;99.90;;;;;;4980273;28;20146;-92
2023/02/12 06:21:12;;;;;;;2.97;2.15;;;8.50;99.90;;;;;;4980156;28;20073;-91
2023/02/12 06:23:39;;;;;;;2.20;1.88;;;8.40;99.90;;;;;;4963722;28;20047;-91
2023/02/12 06:26:06;;;;;;;2.80;2.45;;;8.40;99.90;;;;;;4932686;29;20075;-91
2023/02/12 06:28:33;;;;;;;2.80;2.03;;;8.40;99.90;;;;;;4963864;28;20357;-87
2023/02/12 06:31:00;;;;;;;2.22;1.70;;;8.40;99.90;;;;;;4962194;28;20066;-90
2023/02/12 06:33:27;;;;;;;3.03;1.92;;;8.40;99.90;;;;;;4976267;28;20059;-89
2023/02/12 06:35:54;;;;;;;2.53;1.73;;;8.40;99.90;;;;;;4932516;29;20483;-92
2023/02/12 06:38:22;;;;;;;2.58;2.25;;;8.40;99.90;;;;;;4943131;28;20628;-88
2023/02/12 06:40:49;;;;;;;2.25;1.83;;;8.40;99.90;;;;;;4973684;28;20048;-90
2023/02/12 06:43:16;;;;;;;2.50;2.00;;;8.40;99.90;;;;;;4976298;28;20059;-90
2023/02/12 06:45:44;;;;;;;1.80;1.40;;;8.40;99.90;;;;;;4948241;28;20162;-91
2023/02/12 06:48:11;;;;;;;2.22;1.58;;;8.40;99.90;;;;;;4931321;29;20140;-90
2023/02/12 06:50:38;;;;;;;2.40;1.75;;;8.40;99.90;;;;;;4946465;28;20074;-91
2023/02/12 06:53:05;;;;;;;3.40;1.65;;;8.40;99.90;;;;;;4961762;28;20150;-91
2023/02/12 06:55:33;;;;;;;2.60;1.83;;;8.40;99.90;;;;;;4932662;29;20047;-91
2023/02/12 06:58:00;;;;;;;2.28;1.80;;;8.40;99.90;;;;;;4930946;29;20153;-91
2023/02/12 07:00:27;;;;;;;2.10;1.65;;;8.40;99.90;;;;;;4964529;28;20070;-93
2023/02/12 07:02:55;;;;;;;2.55;1.88;;;8.40;99.90;;;;;;4964637;28;20055;-92
2023/02/12 07:05:24;;;;;;;1.65;1.30;;;8.40;99.90;;;;;;4979174;28;20051;-92
2023/02/12 07:07:51;;;;;;;2.38;1.65;;;8.50;99.90;;;;;;4981132;28;20158;-92
2023/02/12 07:10:19;;;;;;;2.38;1.70;;;8.40;99.90;;;;;;4949922;28;20427;-92
2023/02/12 07:12:46;;;;;;;2.17;1.45;;;8.40;99.90;;;;;;4956830;28;20479;-92
2023/02/12 07:15:13;;;;;;;2.28;1.70;;;8.40;99.90;;;;;;4945650;29;20491;-91
2023/02/12 07:17:40;;;;;;;2.47;1.83;;;8.40;99.90;;;;;;4961780;28;20055;-91
2023/02/12 07:20:08;;;;;;;1.92;1.70;;;8.40;99.90;;;;;;4946762;29;20047;-91
2023/02/12 07:22:35;;;;;;;2.75;1.77;;;8.40;99.90;;;;;;4963128;28;20154;-90
2023/02/12 07:25:02;;;;;;;2.75;2.15;;;8.40;99.90;;;;;;4940416;28;20064;-91
2023/02/12 07:27:29;;;;;;;2.50;1.60;;;8.40;99.90;;;;;;4965432;28;20458;-89
2023/02/12 07:29:57;;;;;;;3.53;2.13;;;8.40;99.90;;;;;;4987850;28;20086;-90
2023/02/12 07:32:24;;;;;;;2.22;1.67;;;8.40;99.90;;;;;;4958211;28;20102;-91
2023/02/12 07:34:51;;;;;;;1.67;1.40;;;8.40;99.90;;;;;;4937479;28;20067;-89
2023/02/12 07:37:21;;;;;;;2.10;1.40;;;8.40;99.90;;;;;;4979368;28;20079;-91
2023/02/12 07:39:49;;;;;;;2.88;1.73;;;8.40;99.90;;;;;;4957279;28;20081;-91
2023/02/12 07:42:16;;;;;;;1.85;1.48;;;8.40;99.90;;;;;;4975939;28;20095;-92
2023/02/12 07:44:45;;;;;;;2.05;1.42;;;8.40;99.90;;;;;;4931767;28;20139;-92
2023/02/12 07:47:12;;;;;;;2.22;1.85;;;8.40;99.90;;;;;;4962714;28;20148;-91
2023/02/12 07:49:39;;;;;;;2.08;1.50;;;8.40;99.90;;;;;;4974116;28;20133;-91
2023/02/12 07:52:06;;;;;;;2.78;1.20;;;8.50;99.90;;;;;;4943078;28;20218;-92
2023/02/12 07:54:33;;;;;;;1.98;1.52;;;8.50;99.90;;;;;;4959022;28;20055;-92
2023/02/12 07:57:00;;;;;;;2.45;1.73;;;8.50;99.90;;;;;;4962191;28;20074;-90
2023/02/12 07:59:27;;;;;;;2.42;1.77;;;8.50;99.90;;;;;;4953269;28;20238;-90
2023/02/12 08:01:55;;;;;;;2.28;1.70;;;8.50;99.90;;;;;;4958303;28;20688;-91
2023/02/12 08:04:23;;;;;;;2.20;1.55;;;8.50;99.90;;;;;;4939886;29;20047;-91
2023/02/12 08:06:52;;;;;;;3.83;1.40;;;8.50;99.90;;;;;;4956005;28;20652;-92
2023/02/12 08:09:24;;;;;;;1.92;1.33;;;8.50;99.90;;;;;;4956711;28;20051;-90
2023/02/12 08:11:52;;;;;;;2.20;1.38;;;8.50;99.90;;;;;;4955097;28;20293;-91
2023/02/12 08:14:20;;;;;;;1.63;1.30;;;8.60;99.90;;;;;;4973054;28;20062;-92
2023/02/12 08:16:47;;;;;;;1.75;1.40;;;8.70;99.90;;;;;;4943507;29;20061;-90
2023/02/12 08:19:14;;;;;;;2.20;1.33;;;8.60;99.90;;;;;;4952948;28;20051;-87
2023/02/12 08:21:49;;;;;;;2.45;1.23;;;8.60;99.90;;;;;;4957827;28;20055;-91
2023/02/12 08:24:16;;;;;;;1.80;1.20;;;8.70;99.90;;;;;;4946630;28;20766;-92
2023/02/12 08:26:44;;;;;;;1.20;0.90;;;8.70;99.90;;;;;;4961850;28;20051;-90
2023/02/12 08:29:13;;;;;;;1.60;0.95;;;8.80;99.90;;;;;;4975772;28;20107;-88
2023/02/12 08:31:42;;;;;;;1.55;1.08;;;8.80;99.90;;;;;;4933906;28;20054;-89
2023/02/12 08:34:39;;;;;;;2.03;1.20;;;8.80;99.90;;;;;;4944046;28;20102;-93
2023/02/12 08:37:06;;;;;;;2.03;1.15;;;8.80;99.90;;;;;;4949982;28;20299;-88
2023/02/12 08:39:33;;;;;;;1.92;1.50;;;8.80;99.90;;;;;;4960663;28;20066;-91
2023/02/12 08:42:00;;;;;;;1.77;1.10;;;8.80;99.90;;;;;;4929936;28;20048;-92
2023/02/12 08:44:27;;;;;;;2.30;1.40;;;8.90;99.90;;;;;;4946282;28;20251;-91
2023/02/12 08:46:55;;;;;;;2.10;1.67;;;8.90;99.90;;;;;;4948837;28;20122;-91
2023/02/12 08:49:23;;;;;;;1.60;1.10;;;8.90;99.90;;;;;;4962870;28;20050;-88
2023/02/12 08:51:52;;;;;;;1.95;1.45;;;8.90;99.90;;;;;;4946973;28;20051;-83
2023/02/12 08:54:21;;;;;;;1.52;1.27;;;8.90;99.90;;;;;;4961409;28;20051;-90
2023/02/12 08:56:48;;;;;;;2.30;1.25;;;9.00;99.90;;;;;;4978574;28;20109;-90
2023/02/12 08:59:15;;;;;;;1.70;1.20;;;9.00;99.90;;;;;;4615968;28;9999954;-89
2023/02/12 09:01:43;;;;;;;1.77;1.30;;;9.10;99.90;;;;;;4958282;28;20049;-90
2023/02/12 09:04:16;;;;;;;1.63;1.02;;;9.10;99.90;;;;;;4975362;28;20642;-90
2023/02/12 09:06:44;;;;;;;1.80;1.30;;;9.10;99.90;;;;;;4963773;28;20684;-90
2023/02/12 09:09:11;;;;;;;1.77;0.98;;;9.20;99.90;;;;;;4960292;28;20121;-91
2023/02/12 09:11:38;;;;;;;1.92;1.10;;;9.20;99.90;;;;;;4946045;28;20063;-90
2023/02/12 09:14:08;;;;;;;1.65;1.13;;;9.30;99.90;;;;;;4962201;28;20074;-91
2023/02/12 09:16:35;;;;;;;1.38;1.08;;;9.40;99.90;;;;;;4962664;28;20051;-91
2023/02/12 09:19:03;;;;;;;1.50;0.93;;;9.40;99.90;;;;;;4946365;28;20142;-90
2023/02/12 09:21:30;;;;;;;1.55;1.35;;;9.50;99.90;;;;;;4969506;28;20083;-89
2023/02/12 09:23:57;;;;;;;1.27;0.85;;;9.50;99.90;;;;;;4958402;28;20047;-90
2023/02/12 09:26:26;;;;;;;1.77;1.13;;;9.50;99.90;;;;;;4981192;28;20182;-90
2023/02/12 09:28:54;;;;;;;1.83;1.27;;;9.50;99.90;;;;;;4957325;28;20178;-89
2023/02/12 09:31:25;;;;;;;1.00;0.88;;;9.50;99.90;;;;;;4962194;28;20051;-90
2023/02/12 09:33:53;;;;;;;1.65;1.27;;;9.50;99.90;;;;;;4974799;28;20051;-90
2023/02/12 09:36:21;;;;;;;2.03;1.33;;;9.60;99.90;;;;;;4958097;28;20054;-89
2023/02/12 09:38:48;;;;;;;1.83;1.30;;;9.50;99.90;;;;;;4971916;28;20446;-89
2023/02/12 09:41:24;;;;;;;2.30;1.35;;;9.50;99.90;;;;;;4977521;28;20664;-89
2023/02/12 09:44:05;;;;;;;2.22;1.02;;;9.50;99.90;;;;;;4942914;28;20063;-89
2023/02/12 09:46:44;;;;;;;1.20;0.90;;;9.50;99.90;;;;;;4975216;28;20063;-89
2023/02/12 09:49:42;;;;;;;1.38;0.80;;;9.60;99.90;;;;;;4943468;29;20055;-88
2023/02/12 09:52:16;;;;;;;1.40;0.82;;;9.60;99.90;;;;;;4943465;28;20324;-89
2023/02/12 09:54:43;;;;;;;1.13;0.85;;;9.60;99.90;;;;;;4950034;28;20070;-82
2023/02/12 09:57:28;;;;;;;1.35;0.95;;;9.70;99.90;;;;;;4936633;29;20138;-82
2023/02/12 10:00:14;;;;;;;1.38;1.00;;;9.70;99.90;;;;;;4954237;28;20158;-82
2023/02/12 10:02:41;;;;;;;0.82;0.57;;;9.70;99.90;;;;;;4959205;28;20174;-82
2023/02/12 10:05:39;;;;;;;1.00;0.88;;;9.80;99.90;;;;;;4952406;28;20138;-83
2023/02/12 10:08:31;;;;;;;1.17;0.80;;;9.70;99.90;;;;;;4924083;29;20051;-82
2023/02/12 10:11:12;;;;;;;1.02;0.60;;;9.80;99.90;;;;;;4968400;28;20058;-82
2023/02/12 10:13:59;;;;;;;1.35;0.90;;;9.80;99.90;;;;;;4948934;28;20103;-82
2023/02/12 10:16:26;;;;;;;1.15;0.80;;;9.90;99.90;;;;;;4932510;29;20088;-82
2023/02/12 10:19:30;;;;;;;0.90;0.70;;;10.00;99.90;;;;;;4967296;28;20071;-82
2023/02/12 10:22:06;;;;;;;0.57;0.47;;;10.00;99.90;;;;;;4935997;28;20263;-82
2023/02/12 10:24:39;;;;;;;1.38;0.60;;;10.10;99.90;;;;;;4974962;28;20051;-82
2023/02/12 10:27:40;;;;;;;0.85;0.55;;;10.20;99.90;;;;;;4933953;28;20043;-81
2023/02/12 10:30:26;;;;;;;0.70;0.70;;;10.20;99.90;;;;;;4959851;28;20549;-81
2023/02/12 10:33:03;;;;;;;0.45;0.45;;;10.20;99.90;;;;;;4946912;28;20586;-81
2023/02/12 10:35:30;;;;;;;0.43;0.43;;;10.30;99.90;;;;;;4933555;29;20510;-80
2023/02/12 10:37:59;;;;;;;1.02;0.70;;;10.30;99.90;;;;;;4950538;28;20499;-81
2023/02/12 10:40:31;;;;;;;0.60;0.52;;;10.30;99.90;;;;;;4933154;29;20536;-81
2023/02/12 10:42:59;;;;;;;0.73;0.45;;;10.30;99.90;;;;;;4946030;28;20082;-82
2023/02/12 10:45:33;;;;;;;0.50;0.40;;;10.20;99.90;;;;;;4943612;28;20063;-85
2023/02/12 10:48:20;;;;;;;0.43;0.43;;;10.20;99.90;;;;;;4966256;28;20761;-82
2023/02/12 10:51:06;;;;;;;0.57;0.40;;;10.20;99.90;;;;;;4931966;28;20090;-81
2023/02/12 10:53:40;;;;;;;0.52;0.40;;;10.20;99.90;;;;;;4949320;28;20047;-82
2023/02/12 10:56:10;;;;;;;0.45;0.30;;;10.30;99.90;;;;;;4932968;29;20055;-82
2023/02/12 10:58:49;;;;;;;0.30;0.30;;;10.40;99.90;;;;;;4934736;28;20051;-82
2023/02/12 11:01:30;;;;;;;0.60;0.50;;;10.40;99.90;;;;;;4932987;28;20400;-81
2023/02/12 11:03:58;;;;;;;0.45;0.43;;;10.40;99.90;;;;;;4933101;28;20451;-81
2023/02/12 11:06:27;;;;;;;0.40;0.40;;;10.40;99.90;;;;;;4964719;28;20655;-82
2023/02/12 11:08:54;;;;;;;1.08;0.73;;;10.50;99.90;;;;;;4949172;28;20428;-82
2023/02/12 11:11:24;;;;;;;0.52;0.40;;;10.40;99.90;;;;;;4964113;28;20346;-80
2023/02/12 11:13:57;;;;;;;0.40;0.40;;;10.50;99.90;;;;;;4965579;28;20107;-81
2023/02/12 11:16:49;;;;;;;0.63;0.47;;;10.50;99.90;;;;;;4954283;28;20058;-81
2023/02/12 11:19:24;;;;;;;0.60;0.40;;;10.60;99.90;;;;;;4950261;28;20169;-81
2023/02/12 11:21:51;;;;;;;1.08;0.57;;;10.60;99.90;;;;;;4937539;28;20051;-81
2023/02/12 11:24:33;;;;;;;0.85;0.65;;;10.60;99.90;;;;;;4932066;29;20077;-83
2023/02/12 11:27:22;;;;;;;0.43;0.40;;;10.60;99.90;;;;;;4946125;28;20061;-81
2023/02/12 11:30:18;;;;;;;0.90;0.60;;;10.60;99.90;;;;;;4949449;28;20089;-82
2023/02/12 11:32:48;;;;;;;0.55;0.40;;;10.50;99.90;;;;;;4928783;28;20051;-82
2023/02/12 11:35:22;;;;;;;1.02;0.60;;;10.50;99.90;;;;;;4948743;28;20061;-82
2023/02/12 11:37:51;;;;;;;0.75;0.45;;;10.60;99.90;;;;;;4950373;28;20246;-81
2023/02/12 11:40:23;;;;;;;0.57;0.43;;;10.60;99.90;;;;;;4967615;28;20130;-81
2023/02/12 11:42:55;;;;;;;0.63;0.50;;;10.60;99.90;;;;;;4933067;29;20051;-80
2023/02/12 11:45:26;;;;;;;0.80;0.57;;;10.60;99.90;;;;;;4933301;29;20517;-81
2023/02/12 11:47:53;;;;;;;0.73;0.40;;;10.60;99.90;;;;;;4949504;28;20197;-81
2023/02/12 11:50:25;;;;;;;0.45;0.45;;;10.60;99.90;;;;;;4973527;28;20058;-81
2023/02/12 11:52:54;;;;;;;0.73;0.50;;;10.60;99.90;;;;;;4931435;28;20162;-81
2023/02/12 11:55:23;;;;;;;0.52;0.50;;;10.70;99.90;;;;;;4947661;28;20051;-81
2023/02/12 11:57:51;;;;;;;0.40;0.40;;;10.70;99.90;;;;;;4945377;28;20142;-79
2023/02/12 12:00:20;;;;;;;0.45;0.40;;;10.80;99.90;;;;;;4939436;28;20071;-81
2023/02/12 12:02:57;;;;;;;0.50;0.40;;;10.90;99.90;;;;;;4918292;28;20107;-81
2023/02/12 12:05:27;;;;;;;0.47;0.40;;;10.90;99.90;;;;;;4940910;28;20059;-82
2023/02/12 12:07:58;;;;;;;0.70;0.40;;;10.90;99.90;;;;;;4965929;28;20110;-79
2023/02/12 12:10:35;;;;;;;0.52;0.52;;;10.80;99.90;;;;;;4962485;28;20039;-82
2023/02/12 12:13:04;;;;;;;0.30;0.30;;;10.80;99.90;;;;;;4931699;29;20087;-81
2023/02/12 12:21:41;;;;;;;0.45;0.43;;;10.80;99.90;;;;;;4934556;28;20460;-81
2023/02/12 12:24:34;;;;;;;0.45;0.40;;;10.80;99.90;;;;;;4947239;28;20051;-82
2023/02/12 12:27:23;;;;;;;0.40;0.40;;;10.80;99.90;;;;;;4930615;29;20062;-81
2023/02/12 12:30:00;;;;;;;0.60;0.40;;;10.70;99.90;;;;;;4947412;28;20051;-83
2023/02/12 12:32:27;;;;;;;0.40;0.40;;;10.70;99.90;;;;;;4931828;28;20074;-80
2023/02/12 12:34:53;;;;;;;0.68;0.50;;;10.70;99.90;;;;;;4949262;28;20391;-81
2023/02/12 12:37:52;;;;;;;0.47;0.40;;;10.60;99.90;;;;;;4931655;28;20323;-82
2023/02/12 12:40:24;;;;;;;0.73;0.50;;;10.60;99.90;;;;;;4934162;28;20511;-81
2023/02/12 12:42:57;;;;;;;0.52;0.50;;;10.50;99.90;;;;;;4956111;28;20066;-80
2023/02/12 12:45:39;;;;;;;0.52;0.40;;;10.40;99.90;;;;;;4960560;28;20051;-81
2023/02/12 12:48:24;;;;;;;0.30;0.30;;;10.40;99.90;;;;;;4934661;28;20049;-81
2023/02/12 12:51:16;;;;;;;0.50;0.47;;;10.40;99.90;;;;;;4941216;28;20173;-81
2023/02/12 12:54:11;;;;;;;0.70;0.43;;;10.40;99.90;;;;;;4958303;28;20606;-81
2023/02/12 12:56:48;;;;;;;0.50;0.47;;;10.40;99.90;;;;;;4948751;28;20130;-82
2023/02/12 12:59:24;;;;;;;0.50;0.50;;;10.40;99.90;;;;;;4925297;28;20059;-83
2023/02/12 13:02:28;;;;;;;1.13;0.60;;;10.30;99.90;;;;;;4946515;28;20602;-82
2023/02/12 13:05:13;;;;;;;0.98;0.68;;;10.30;99.90;;;;;;4965513;28;20066;-81
2023/02/12 13:07:58;;;;;;;0.47;0.45;;;10.40;99.90;;;;;;4944684;28;20453;-81
2023/02/12 13:10:32;;;;;;;0.77;0.60;;;10.50;99.90;;;;;;4934004;28;20062;-81
2023/02/12 13:13:35;;;;;;;0.73;0.60;;;10.50;99.90;;;;;;4965335;28;20130;-81
2023/02/12 13:16:22;;;;;;;0.52;0.50;;;10.60;99.90;;;;;;4977681;28;20242;-81
2023/02/12 13:18:52;;;;;;;0.38;0.38;;;10.60;99.90;;;;;;4932115;29;20055;-80
2023/02/12 13:21:28;;;;;;;0.77;0.50;;;10.50;99.90;;;;;;4976830;28;20134;-81
2023/02/12 13:24:09;;;;;;;0.63;0.40;;;10.50;99.90;;;;;;4936056;28;20055;-81
2023/02/12 13:26:59;;;;;;;0.50;0.50;;;10.50;99.90;;;;;;4967126;28;20436;-80
2023/02/12 13:29:36;;;;;;;0.63;0.50;;;10.50;99.90;;;;;;4920484;28;20118;-81
2023/02/12 13:32:06;;;;;;;0.30;0.30;;;10.60;99.90;;;;;;4926282;29;20051;-81
2023/02/12 13:34:33;;;;;;;0.65;0.50;;;10.60;99.90;;;;;;4949030;28;20069;-81